createdAt,value
2018-07-31T00:01:07.981Z,54.00
2018-07-31T00:03:36.334Z,53.90
2018-07-31T00:06:04.571Z,53.70
2018-07-31T00:08:32.838Z,53.20
2018-07-31T00:11:01.076Z,53.10
2018-07-31T00:13:29.346Z,53.80
2018-07-31T00:15:58.341Z,53.80
2018-07-31T00:18:26.609Z,53.80
2018-07-31T00:20:55.626Z,54.20
2018-07-31T00:23:23.866Z,54.10
2018-07-31T00:25:52.906Z,54.50
2018-07-31T00:28:21.149Z,54.40
2018-07-31T00:30:49.402Z,55.30
2018-07-31T00:33:18.498Z,55.80
2018-07-31T00:35:46.726Z,55.40
2018-07-31T00:38:14.966Z,55.10
2018-07-31T00:40:43.993Z,55.70
2018-07-31T00:43:12.237Z,54.90
2018-07-31T00:45:40.528Z,55.10
2018-07-31T00:48:08.775Z,55.20
2018-07-31T00:50:37.784Z,54.90
2018-07-31T00:53:06.048Z,54.80
2018-07-31T00:55:35.090Z,54.80
2018-07-31T00:58:03.342Z,54.70
2018-07-31T01:00:31.576Z,55.40
2018-07-31T01:02:59.839Z,56.00
2018-07-31T01:05:28.067Z,56.50
2018-07-31T01:07:56.329Z,56.60
2018-07-31T01:10:24.616Z,56.80
2018-07-31T01:12:52.842Z,56.60
2018-07-31T01:15:21.098Z,56.50
2018-07-31T01:17:49.530Z,55.90
2018-07-31T01:20:17.805Z,55.70
2018-07-31T01:22:46.055Z,55.80
2018-07-31T01:25:15.115Z,56.20
2018-07-31T01:27:43.355Z,56.20
2018-07-31T01:30:11.591Z,55.50
2018-07-31T01:32:39.844Z,55.50
2018-07-31T01:35:08.079Z,56.20
2018-07-31T01:37:36.344Z,55.60
2018-07-31T01:40:04.581Z,56.00
2018-07-31T01:42:32.842Z,56.70
2018-07-31T01:45:01.856Z,56.00
2018-07-31T01:47:30.113Z,56.00
2018-07-31T01:49:58.361Z,56.30
2018-07-31T01:52:26.617Z,56.60
2018-07-31T01:54:54.914Z,56.60
2018-07-31T01:57:23.169Z,56.50
2018-07-31T01:59:52.431Z,56.30
2018-07-31T02:02:20.667Z,56.20
2018-07-31T02:04:48.901Z,56.70
2018-07-31T02:07:17.142Z,56.60
2018-07-31T02:09:45.393Z,56.80
2018-07-31T02:12:13.638Z,57.10
2018-07-31T02:14:41.906Z,57.20
2018-07-31T02:17:10.158Z,57.50
2018-07-31T02:19:39.165Z,58.30
2018-07-31T02:22:07.435Z,58.10
2018-07-31T02:24:36.454Z,58.00
2018-07-31T02:27:04.695Z,58.00
2018-07-31T02:29:33.739Z,58.10
2018-07-31T02:32:01.973Z,58.00
2018-07-31T02:34:30.978Z,57.50
2018-07-31T02:36:59.254Z,57.50
2018-07-31T02:39:27.505Z,57.50
2018-07-31T02:41:56.532Z,57.10
2018-07-31T02:44:24.778Z,57.10
2018-07-31T02:46:53.840Z,58.00
2018-07-31T02:49:22.042Z,58.00
2018-07-31T02:51:51.062Z,57.20
2018-07-31T02:54:19.327Z,57.20
2018-07-31T02:56:47.573Z,57.20
2018-07-31T02:59:16.603Z,57.30
2018-07-31T03:01:44.859Z,57.30
2018-07-31T03:04:13.116Z,57.30
2018-07-31T03:06:41.371Z,57.10
2018-07-31T03:09:09.614Z,58.40
2018-07-31T03:11:37.871Z,56.50
2018-07-31T03:14:06.125Z,56.60
2018-07-31T03:16:35.134Z,57.40
2018-07-31T03:19:03.399Z,57.40
2018-07-31T03:21:32.415Z,57.70
2018-07-31T03:24:00.706Z,57.70
2018-07-31T03:26:28.961Z,57.70
2018-07-31T03:28:57.201Z,57.80
2018-07-31T03:31:26.242Z,57.80
2018-07-31T03:33:54.484Z,57.70
2018-07-31T03:36:23.490Z,57.70
2018-07-31T03:38:51.746Z,57.70
2018-07-31T03:41:20.753Z,58.30
2018-07-31T03:43:49.004Z,58.30
2018-07-31T03:46:18.007Z,58.30
2018-07-31T03:48:47.037Z,58.20
2018-07-31T03:51:15.272Z,58.20
2018-07-31T03:53:44.293Z,58.40
2018-07-31T03:56:12.549Z,58.40
2018-07-31T03:58:41.622Z,57.50
2018-07-31T04:01:10.649Z,57.70
2018-07-31T04:03:38.885Z,57.60
2018-07-31T04:06:07.914Z,57.40
2018-07-31T04:08:36.198Z,57.40
2018-07-31T04:11:04.433Z,57.70
2018-07-31T04:13:33.441Z,58.70
2018-07-31T04:16:02.470Z,58.40
2018-07-31T04:18:30.709Z,58.40
2018-07-31T04:20:59.742Z,58.50
2018-07-31T04:23:28.678Z,58.50
2018-07-31T04:25:57.682Z,58.60
2018-07-31T04:28:26.719Z,57.30
2018-07-31T04:30:54.957Z,57.40
2018-07-31T04:33:23.202Z,57.90
2018-07-31T04:35:51.753Z,58.90
2018-07-31T04:38:19.956Z,59.10
2018-07-31T04:40:48.198Z,59.10
2018-07-31T04:43:16.458Z,58.40
2018-07-31T04:45:44.711Z,58.80
2018-07-31T04:48:12.970Z,59.20
2018-07-31T04:50:41.972Z,59.10
2018-07-31T04:53:11.097Z,59.10
2018-07-31T04:55:39.339Z,59.10
2018-07-31T04:58:08.358Z,60.00
2018-07-31T05:00:36.606Z,60.00
2018-07-31T05:03:05.628Z,60.10
2018-07-31T05:05:33.870Z,60.10
2018-07-31T05:08:02.890Z,60.00
2018-07-31T05:10:31.131Z,60.00
2018-07-31T05:13:00.130Z,60.70
2018-07-31T05:15:29.158Z,60.80
2018-07-31T05:17:57.407Z,61.40
2018-07-31T05:20:25.670Z,60.80
2018-07-31T05:22:54.675Z,60.80
2018-07-31T05:25:23.107Z,60.80
2018-07-31T05:27:51.193Z,60.70
2018-07-31T05:30:19.476Z,60.60
2018-07-31T05:32:47.794Z,60.90
2018-07-31T05:35:15.965Z,60.70
2018-07-31T05:37:44.230Z,60.50
2018-07-31T05:40:12.583Z,59.20
2018-07-31T05:42:41.583Z,58.90
2018-07-31T05:45:10.585Z,58.80
2018-07-31T05:47:38.823Z,58.80
2018-07-31T05:50:07.095Z,58.90
2018-07-31T05:52:35.378Z,57.50
2018-07-31T05:55:03.626Z,57.80
2018-07-31T05:57:32.045Z,57.10
2018-07-31T06:00:00.218Z,56.40
2018-07-31T06:02:29.226Z,56.90
2018-07-31T06:04:57.501Z,56.90
2018-07-31T06:07:26.535Z,56.60
2018-07-31T06:09:54.814Z,56.60
2018-07-31T06:12:23.050Z,57.60
2018-07-31T06:14:51.289Z,56.30
2018-07-31T06:17:19.562Z,55.70
2018-07-31T06:19:47.809Z,55.90
2018-07-31T06:22:16.058Z,54.90
2018-07-31T06:24:44.313Z,55.00
2018-07-31T06:27:13.321Z,52.80
2018-07-31T06:29:41.588Z,52.70
2018-07-31T06:32:09.839Z,51.30
2018-07-31T06:34:38.118Z,50.80
2018-07-31T06:37:07.146Z,50.30
2018-07-31T06:39:35.454Z,50.30
2018-07-31T06:42:03.692Z,50.30
2018-07-31T06:44:31.950Z,49.40
2018-07-31T06:47:00.966Z,48.40
2018-07-31T06:49:29.238Z,48.20
2018-07-31T06:51:57.473Z,48.60
2018-07-31T06:54:26.486Z,48.30
2018-07-31T06:56:54.844Z,48.20
2018-07-31T06:59:23.087Z,48.40
2018-07-31T07:01:51.337Z,49.50
2018-07-31T07:04:19.598Z,47.40
2018-07-31T07:06:47.848Z,47.60
2018-07-31T07:09:16.147Z,46.80
2018-07-31T07:11:44.343Z,47.40
2018-07-31T07:14:12.622Z,47.10
2018-07-31T07:16:40.869Z,46.30
2018-07-31T07:19:09.106Z,46.50
2018-07-31T07:21:37.366Z,47.10
2018-07-31T07:24:05.627Z,44.90
2018-07-31T07:26:33.886Z,44.40
2018-07-31T07:29:02.145Z,44.80
2018-07-31T07:31:30.393Z,44.30
2018-07-31T07:33:58.757Z,44.30
2018-07-31T07:36:27.682Z,44.50
2018-07-31T07:38:55.928Z,43.80
2018-07-31T07:41:24.188Z,43.80
2018-07-31T07:43:52.435Z,43.80
2018-07-31T07:46:20.698Z,41.50
2018-07-31T07:48:48.926Z,42.10
2018-07-31T07:51:17.195Z,43.10
2018-07-31T07:53:45.477Z,41.40
2018-07-31T07:56:13.684Z,41.60
2018-07-31T07:58:41.934Z,41.00
2018-07-31T08:01:11.036Z,41.90
2018-07-31T08:03:40.072Z,39.60
2018-07-31T08:06:08.303Z,39.50
2018-07-31T08:08:37.319Z,38.60
2018-07-31T08:11:05.582Z,38.60
2018-07-31T08:13:33.826Z,39.10
2018-07-31T08:16:02.090Z,38.50
2018-07-31T08:18:30.364Z,38.50
2018-07-31T08:20:58.594Z,38.40
2018-07-31T08:23:26.864Z,38.20
2018-07-31T08:25:55.160Z,38.60
2018-07-31T08:28:23.383Z,37.30
2018-07-31T08:30:51.633Z,36.20
2018-07-31T08:33:19.878Z,36.10
2018-07-31T08:35:48.146Z,37.90
2018-07-31T08:38:16.396Z,36.00
2018-07-31T08:40:45.441Z,37.30
2018-07-31T08:43:13.673Z,37.40
2018-07-31T08:45:41.912Z,36.70
2018-07-31T08:48:10.186Z,36.00
2018-07-31T08:50:38.431Z,36.00
2018-07-31T08:53:06.685Z,36.40
2018-07-31T08:55:35.019Z,36.30
2018-07-31T08:58:03.236Z,33.90
2018-07-31T09:00:31.513Z,33.80
2018-07-31T09:03:00.499Z,35.80
2018-07-31T09:05:28.782Z,35.80
2018-07-31T09:07:57.035Z,34.00
2018-07-31T09:10:25.288Z,35.50
2018-07-31T09:12:53.534Z,33.70
2018-07-31T09:15:21.788Z,34.80
2018-07-31T09:17:50.043Z,33.70
2018-07-31T09:20:18.289Z,33.30
2018-07-31T09:22:46.843Z,34.60
2018-07-31T09:25:15.084Z,35.70
2018-07-31T09:27:43.363Z,35.40
2018-07-31T09:30:11.598Z,33.70
2018-07-31T09:32:40.694Z,33.70
2018-07-31T09:35:09.713Z,34.10
2018-07-31T09:37:37.955Z,34.00
2018-07-31T09:40:06.997Z,31.60
2018-07-31T09:42:35.269Z,31.50
2018-07-31T09:45:03.538Z,31.30
2018-07-31T09:47:31.786Z,31.60
2018-07-31T09:50:00.798Z,32.10
2018-07-31T09:52:29.057Z,32.10
2018-07-31T09:54:58.055Z,33.30
2018-07-31T09:57:26.314Z,33.40
2018-07-31T09:59:55.348Z,32.50
2018-07-31T10:02:23.598Z,32.50
2018-07-31T10:04:51.858Z,31.70
2018-07-31T10:07:20.144Z,31.00
2018-07-31T10:09:49.437Z,31.60
2018-07-31T10:12:17.788Z,31.50
2018-07-31T10:14:46.043Z,30.40
2018-07-31T10:17:20.041Z,30.20
2018-07-31T10:19:49.030Z,31.60
2018-07-31T10:22:17.278Z,29.70
2018-07-31T10:24:45.541Z,30.10
2018-07-31T10:27:14.548Z,31.40
2018-07-31T10:29:43.141Z,31.30
2018-07-31T10:32:11.398Z,29.80
2018-07-31T10:34:40.426Z,29.80
2018-07-31T10:37:08.691Z,29.70
2018-07-31T10:39:36.926Z,28.50
2018-07-31T10:42:05.945Z,29.00
2018-07-31T10:44:34.187Z,29.00
2018-07-31T10:47:02.447Z,29.30
2018-07-31T10:49:30.718Z,29.80
2018-07-31T10:51:58.961Z,28.60
2018-07-31T10:54:27.200Z,28.40
2018-07-31T10:56:56.458Z,27.30
2018-07-31T10:59:24.702Z,27.20
2018-07-31T11:01:52.947Z,30.00
2018-07-31T11:04:22.228Z,27.90
2018-07-31T11:06:50.430Z,27.90
2018-07-31T11:09:18.678Z,28.90
2018-07-31T11:11:46.929Z,28.60
2018-07-31T11:14:15.188Z,27.50
2018-07-31T11:16:43.435Z,28.40
2018-07-31T11:19:11.685Z,27.10
2018-07-31T11:21:40.710Z,27.20
2018-07-31T11:24:09.061Z,26.40
2018-07-31T11:26:38.062Z,23.60
2018-07-31T11:29:06.466Z,23.60
2018-07-31T11:31:34.697Z,25.60
2018-07-31T11:34:03.711Z,24.00
2018-07-31T11:36:31.984Z,24.00
2018-07-31T11:39:00.228Z,23.80
2018-07-31T11:41:28.479Z,25.80
2018-07-31T11:43:56.757Z,24.00
2018-07-31T11:46:25.250Z,24.00
2018-07-31T11:48:53.484Z,25.10
2018-07-31T11:51:21.730Z,25.40
2018-07-31T11:53:50.758Z,22.50
2018-07-31T11:56:19.011Z,22.50
2018-07-31T11:58:47.422Z,23.60
2018-07-31T12:01:15.682Z,23.50
2018-07-31T12:03:43.912Z,25.10
2018-07-31T12:06:12.258Z,25.40
2018-07-31T12:08:40.503Z,26.50
2018-07-31T12:11:08.732Z,25.00
2018-07-31T12:13:36.996Z,24.10
2018-07-31T12:16:05.329Z,24.10
2018-07-31T12:18:34.306Z,24.60
2018-07-31T12:21:02.540Z,24.70
2018-07-31T12:23:31.677Z,24.30
2018-07-31T12:25:59.933Z,25.60
2018-07-31T12:28:29.485Z,24.50
2018-07-31T12:30:57.727Z,24.30
2018-07-31T12:33:26.017Z,24.40
2018-07-31T12:35:54.242Z,24.20
2018-07-31T12:38:22.547Z,24.60
2018-07-31T12:40:51.528Z,23.60
2018-07-31T12:43:20.530Z,21.90
2018-07-31T12:45:49.558Z,22.80
2018-07-31T12:48:17.920Z,22.80
2018-07-31T12:50:46.195Z,22.50
2018-07-31T12:53:14.445Z,23.60
2018-07-31T12:55:43.485Z,24.60
2018-07-31T12:58:11.754Z,24.30
2018-07-31T13:00:39.988Z,26.30
2018-07-31T13:03:09.010Z,24.00
2018-07-31T13:05:37.272Z,23.90
2018-07-31T13:08:05.525Z,24.30
2018-07-31T13:10:34.597Z,24.30
2018-07-31T13:13:02.861Z,24.30
2018-07-31T13:15:31.117Z,26.20
2018-07-31T13:17:59.373Z,24.70
2018-07-31T13:20:28.954Z,25.20
2018-07-31T13:22:58.007Z,24.10
2018-07-31T13:25:26.518Z,24.10
2018-07-31T13:27:54.767Z,24.20
2018-07-31T13:30:22.992Z,25.70
2018-07-31T13:32:51.342Z,24.10
2018-07-31T13:35:19.548Z,26.60
2018-07-31T13:37:47.817Z,25.90
2018-07-31T13:40:16.080Z,24.20
2018-07-31T13:42:45.082Z,24.70
2018-07-31T13:45:14.491Z,23.00
2018-07-31T13:47:42.750Z,23.00
2018-07-31T13:50:11.766Z,24.70
2018-07-31T13:52:40.032Z,24.70
2018-07-31T13:55:08.326Z,24.70
2018-07-31T13:57:36.550Z,24.50
2018-07-31T14:00:04.830Z,23.10
2018-07-31T14:02:34.001Z,23.90
2018-07-31T14:05:02.254Z,23.80
2018-07-31T14:07:30.490Z,24.60
2018-07-31T14:09:59.008Z,24.60
2018-07-31T14:12:27.262Z,26.40
2018-07-31T14:14:55.507Z,26.90
2018-07-31T14:17:24.522Z,24.60
2018-07-31T14:19:53.026Z,24.60
2018-07-31T14:22:21.510Z,24.60
2018-07-31T14:24:49.771Z,24.30
2018-07-31T14:27:18.341Z,24.90
2018-07-31T14:29:46.593Z,25.30
2018-07-31T14:32:14.818Z,25.60
2018-07-31T14:34:43.079Z,24.20
2018-07-31T14:37:11.416Z,24.40
2018-07-31T14:39:39.628Z,24.20
2018-07-31T14:42:07.863Z,24.40
2018-07-31T14:44:36.894Z,24.30
2018-07-31T14:47:05.133Z,24.30
2018-07-31T14:49:34.270Z,24.10
2018-07-31T14:52:02.510Z,24.10
2018-07-31T14:54:31.523Z,25.10
2018-07-31T14:56:59.787Z,25.10
2018-07-31T14:59:28.021Z,25.30
2018-07-31T15:01:56.273Z,24.70
2018-07-31T15:04:24.510Z,26.50
2018-07-31T15:06:52.991Z,24.10
2018-07-31T15:09:21.238Z,24.10
2018-07-31T15:11:49.494Z,24.10
2018-07-31T15:14:17.994Z,23.40
2018-07-31T15:16:46.266Z,22.90
2018-07-31T15:19:14.502Z,23.90
2018-07-31T15:21:43.011Z,24.70
2018-07-31T15:24:11.249Z,24.30
2018-07-31T15:26:39.490Z,26.00
2018-07-31T15:29:07.774Z,25.10
2018-07-31T15:31:36.765Z,24.80
2018-07-31T15:34:05.012Z,24.80
2018-07-31T15:36:33.531Z,24.40
2018-07-31T15:39:01.793Z,25.20
2018-07-31T15:41:30.801Z,25.20
2018-07-31T15:43:59.069Z,25.30
2018-07-31T15:46:27.326Z,25.90
2018-07-31T15:48:56.498Z,23.80
2018-07-31T15:51:24.747Z,23.80
2018-07-31T15:53:53.764Z,23.80
2018-07-31T15:56:22.040Z,23.80
2018-07-31T15:58:50.305Z,24.00
2018-07-31T16:01:18.546Z,24.20
2018-07-31T16:03:46.823Z,23.80
2018-07-31T16:06:15.077Z,24.40
2018-07-31T16:08:43.338Z,25.80
2018-07-31T16:11:12.349Z,24.50
2018-07-31T16:13:40.619Z,24.40
2018-07-31T16:16:08.907Z,24.90
2018-07-31T16:18:37.141Z,25.00
2018-07-31T16:21:05.709Z,24.90
2018-07-31T16:23:33.923Z,25.90
2018-07-31T16:26:03.020Z,24.50
2018-07-31T16:28:32.381Z,23.90
2018-07-31T16:31:00.605Z,23.90
2018-07-31T16:33:28.886Z,24.50
2018-07-31T16:35:57.144Z,24.70
2018-07-31T16:38:26.170Z,25.00
2018-07-31T16:40:54.409Z,24.90
2018-07-31T16:43:23.458Z,25.20
2018-07-31T16:45:52.527Z,25.60
2018-07-31T16:48:20.793Z,25.50
2018-07-31T16:50:49.041Z,25.90
2018-07-31T16:53:18.100Z,25.00
2018-07-31T16:55:46.340Z,24.90
2018-07-31T16:58:14.594Z,25.50
2018-07-31T17:00:42.861Z,26.10
2018-07-31T17:03:11.881Z,24.90
2018-07-31T17:05:40.136Z,24.90
2018-07-31T17:08:08.405Z,24.40
2018-07-31T17:10:37.416Z,24.00
2018-07-31T17:13:05.692Z,23.90
2018-07-31T17:15:33.987Z,25.00
2018-07-31T17:18:02.251Z,24.60
2018-07-31T17:20:30.513Z,25.50
2018-07-31T17:22:58.766Z,25.30
2018-07-31T17:25:27.017Z,25.00
2018-07-31T17:27:55.284Z,24.30
2018-07-31T17:30:23.522Z,24.20
2018-07-31T17:32:51.791Z,23.90
2018-07-31T17:35:20.069Z,24.60
2018-07-31T17:37:49.084Z,24.60
2018-07-31T17:40:17.343Z,24.60
2018-07-31T17:42:45.596Z,24.90
2018-07-31T17:45:13.877Z,25.50
2018-07-31T17:47:42.144Z,25.90
2018-07-31T17:50:10.410Z,25.20
2018-07-31T17:52:39.459Z,27.00
2018-07-31T17:55:07.774Z,26.90
2018-07-31T17:57:36.055Z,27.10
2018-07-31T18:00:05.074Z,26.70
2018-07-31T18:02:33.331Z,26.70
2018-07-31T18:05:01.604Z,26.70
2018-07-31T18:07:30.643Z,27.00
2018-07-31T18:09:59.691Z,29.50
2018-07-31T18:12:27.939Z,29.00
2018-07-31T18:14:56.203Z,27.90
2018-07-31T18:17:24.471Z,28.90
2018-07-31T18:19:52.737Z,29.30
2018-07-31T18:22:21.026Z,27.80
2018-07-31T18:24:49.274Z,26.00
2018-07-31T18:27:17.546Z,26.90
2018-07-31T18:29:45.806Z,28.80
2018-07-31T18:32:14.058Z,27.90
2018-07-31T18:34:43.091Z,28.60
2018-07-31T18:37:11.329Z,28.60
2018-07-31T18:39:39.615Z,28.60
2018-07-31T18:42:07.855Z,29.70
2018-07-31T18:44:36.141Z,31.10
2018-07-31T18:47:05.250Z,29.40
2018-07-31T18:49:33.491Z,29.40
2018-07-31T18:52:01.738Z,29.50
2018-07-31T18:54:29.987Z,29.70
2018-07-31T18:56:58.247Z,28.50
2018-07-31T18:59:27.273Z,29.30
2018-07-31T19:01:55.558Z,29.20
2018-07-31T19:04:23.808Z,29.10
2018-07-31T19:06:52.095Z,29.10
2018-07-31T19:09:21.070Z,29.30
2018-07-31T19:11:49.353Z,29.20
2018-07-31T19:14:17.597Z,29.70
2018-07-31T19:16:46.658Z,30.40
2018-07-31T19:19:14.897Z,30.40
2018-07-31T19:21:43.180Z,31.20
2018-07-31T19:24:11.433Z,31.70
2018-07-31T19:26:39.669Z,32.50
2018-07-31T19:29:07.957Z,33.30
2018-07-31T19:31:36.224Z,34.00
2018-07-31T19:34:04.518Z,32.80
2018-07-31T19:36:32.736Z,33.70
2018-07-31T19:39:01.017Z,34.60
2018-07-31T19:41:29.265Z,35.40
2018-07-31T19:43:57.548Z,36.30
2018-07-31T19:46:25.858Z,33.80
2018-07-31T19:48:54.085Z,36.00
2018-07-31T19:51:22.369Z,37.40
2018-07-31T19:53:50.606Z,37.30
2018-07-31T19:56:19.686Z,37.10
2018-07-31T19:58:47.946Z,37.10
2018-07-31T20:01:16.290Z,38.60
2018-07-31T20:03:44.461Z,38.10
2018-07-31T20:06:12.749Z,38.00
2018-07-31T20:08:41.001Z,37.80
2018-07-31T20:11:09.264Z,38.50
2018-07-31T20:13:37.544Z,38.40
2018-07-31T20:16:05.798Z,39.70
2018-07-31T20:18:34.034Z,40.40
2018-07-31T20:21:02.330Z,41.20
2018-07-31T20:23:30.546Z,41.00
2018-07-31T20:25:58.816Z,41.50
2018-07-31T20:28:27.827Z,40.80
2018-07-31T20:30:56.088Z,40.80
2018-07-31T20:33:24.348Z,41.40
2018-07-31T20:35:53.368Z,42.70
2018-07-31T20:38:21.638Z,42.60
2018-07-31T20:40:49.901Z,41.30
2018-07-31T20:43:18.929Z,42.10
2018-07-31T20:45:47.214Z,42.10
2018-07-31T20:48:15.474Z,43.00
2018-07-31T20:50:43.730Z,44.00
2018-07-31T20:53:11.979Z,43.80
2018-07-31T20:55:40.998Z,44.10
2018-07-31T20:58:09.242Z,44.00
2018-07-31T21:00:38.270Z,43.90
2018-07-31T21:03:06.524Z,43.90
2018-07-31T21:05:35.546Z,44.10
2018-07-31T21:08:03.820Z,44.00
2018-07-31T21:10:32.066Z,42.40
2018-07-31T21:13:01.092Z,43.00
2018-07-31T21:15:29.325Z,43.00
2018-07-31T21:17:58.375Z,43.40
2018-07-31T21:20:26.603Z,43.30
2018-07-31T21:22:55.601Z,43.70
2018-07-31T21:25:23.864Z,43.70
2018-07-31T21:27:52.882Z,43.00
2018-07-31T21:30:21.147Z,43.00
2018-07-31T21:32:49.382Z,43.50
2018-07-31T21:35:17.649Z,43.60
2018-07-31T21:37:45.886Z,44.20
2018-07-31T21:40:14.145Z,44.10
2018-07-31T21:42:42.408Z,44.30
2018-07-31T21:45:10.664Z,44.80
2018-07-31T21:47:38.976Z,45.10
2018-07-31T21:50:07.186Z,45.50
2018-07-31T21:52:35.458Z,44.60
2018-07-31T21:55:03.683Z,45.00
2018-07-31T21:57:32.732Z,46.00
2018-07-31T22:00:00.961Z,46.00
2018-07-31T22:02:29.217Z,45.90
2018-07-31T22:04:58.246Z,45.60
2018-07-31T22:07:26.487Z,45.60
2018-07-31T22:09:55.506Z,45.90
2018-07-31T22:12:23.758Z,45.80
2018-07-31T22:14:52.819Z,45.70
2018-07-31T22:17:21.055Z,45.60
2018-07-31T22:19:49.314Z,46.00
2018-07-31T22:22:17.549Z,45.60
2018-07-31T22:24:45.886Z,46.00
2018-07-31T22:27:14.070Z,46.30
2018-07-31T22:29:42.314Z,46.80
2018-07-31T22:32:10.585Z,47.50
2018-07-31T22:34:38.834Z,47.70
2018-07-31T22:37:07.156Z,47.60
2018-07-31T22:39:35.408Z,47.60
2018-07-31T22:42:03.665Z,48.10
2018-07-31T22:44:32.674Z,47.40
2018-07-31T22:47:00.914Z,47.40
2018-07-31T22:49:29.194Z,47.50
2018-07-31T22:51:57.433Z,48.20
2018-07-31T22:54:25.679Z,47.70
2018-07-31T22:56:53.933Z,47.40
2018-07-31T22:59:22.945Z,47.70
2018-07-31T23:01:51.218Z,47.50
2018-07-31T23:04:19.458Z,47.50
2018-07-31T23:06:47.707Z,46.50
2018-07-31T23:09:15.978Z,46.70
2018-07-31T23:11:44.226Z,46.40
2018-07-31T23:14:12.491Z,47.50
2018-07-31T23:16:40.722Z,47.30
2018-07-31T23:19:08.977Z,47.90
2018-07-31T23:21:37.242Z,48.60
2018-07-31T23:24:05.484Z,48.70
2018-07-31T23:26:33.751Z,48.50
2018-07-31T23:29:02.757Z,49.70
2018-07-31T23:31:31.454Z,49.70
2018-07-31T23:34:02.742Z,50.20
2018-07-31T23:36:31.402Z,50.50
2018-07-31T23:38:59.650Z,50.20
2018-07-31T23:41:27.917Z,49.70
2018-07-31T23:43:56.159Z,50.00
2018-07-31T23:46:24.426Z,50.10
2018-07-31T23:48:52.677Z,50.60
2018-07-31T23:51:20.945Z,51.00
2018-07-31T23:53:49.195Z,51.40
2018-07-31T23:56:17.458Z,51.60
2018-07-31T23:58:46.474Z,51.30
